createdAt,value
2018-10-07T00:00:45.877Z,17.30
2018-10-07T00:03:13.150Z,17.40
2018-10-07T00:05:40.449Z,17.40
2018-10-07T00:08:07.721Z,17.40
2018-10-07T00:10:34.978Z,17.40
2018-10-07T00:13:02.263Z,17.40
2018-10-07T00:15:29.505Z,17.40
2018-10-07T00:17:56.779Z,17.40
2018-10-07T00:20:24.039Z,17.30
2018-10-07T00:22:51.318Z,17.40
2018-10-07T00:25:18.574Z,17.40
2018-10-07T00:27:45.892Z,17.40
2018-10-07T00:30:13.195Z,17.40
2018-10-07T00:32:40.516Z,17.30
2018-10-07T00:35:07.776Z,17.30
2018-10-07T00:37:35.040Z,17.30
2018-10-07T00:40:02.359Z,17.30
2018-10-07T00:42:29.630Z,17.20
2018-10-07T00:44:56.868Z,17.20
2018-10-07T00:47:24.142Z,17.20
2018-10-07T00:49:51.417Z,17.10
2018-10-07T00:52:18.659Z,17.10
2018-10-07T00:54:45.945Z,17.10
2018-10-07T00:57:13.209Z,17.00
2018-10-07T00:59:40.474Z,17.00
2018-10-07T01:02:07.945Z,16.90
2018-10-07T01:04:35.216Z,16.90
2018-10-07T01:07:02.477Z,16.80
2018-10-07T01:09:29.733Z,16.80
2018-10-07T01:11:57.022Z,16.70
2018-10-07T01:14:24.319Z,16.70
2018-10-07T01:16:51.598Z,16.60
2018-10-07T01:19:18.931Z,16.50
2018-10-07T01:21:46.268Z,16.50
2018-10-07T01:24:13.538Z,16.40
2018-10-07T01:26:40.809Z,16.30
2018-10-07T01:29:08.054Z,16.20
2018-10-07T01:31:35.289Z,16.20
2018-10-07T01:34:02.527Z,16.10
2018-10-07T01:36:29.810Z,16.10
2018-10-07T01:38:57.101Z,16.00
2018-10-07T01:41:24.417Z,15.90
2018-10-07T01:43:51.691Z,15.90
2018-10-07T01:46:18.943Z,15.90
2018-10-07T01:48:46.463Z,15.80
2018-10-07T01:51:13.705Z,15.80
2018-10-07T01:53:40.955Z,15.70
2018-10-07T01:56:08.222Z,15.70
2018-10-07T01:58:35.667Z,15.70
2018-10-07T02:01:03.000Z,15.60
2018-10-07T02:03:30.263Z,15.60
2018-10-07T02:05:57.585Z,15.60
2018-10-07T02:08:24.830Z,15.50
2018-10-07T02:10:52.150Z,15.50
2018-10-07T02:13:19.423Z,15.50
2018-10-07T02:15:46.673Z,15.50
2018-10-07T02:18:13.928Z,15.40
2018-10-07T02:20:41.166Z,15.40
2018-10-07T02:23:08.415Z,15.40
2018-10-07T02:25:35.659Z,15.40
2018-10-07T02:28:02.973Z,15.40
2018-10-07T02:30:30.463Z,15.40
2018-10-07T02:32:57.921Z,15.40
2018-10-07T02:35:25.296Z,15.40
2018-10-07T02:37:52.709Z,15.40
2018-10-07T02:40:20.170Z,15.30
2018-10-07T02:42:47.437Z,15.30
2018-10-07T02:45:14.690Z,15.30
2018-10-07T02:47:42.041Z,15.30
2018-10-07T02:50:17.010Z,15.30
2018-10-07T02:52:49.559Z,15.20
2018-10-07T02:55:20.377Z,15.20
2018-10-07T02:57:48.552Z,15.20
2018-10-07T03:00:16.127Z,15.20
2018-10-07T03:02:43.449Z,15.10
2018-10-07T03:07:38.917Z,15.20
2018-10-07T03:10:06.178Z,15.20
2018-10-07T03:12:33.450Z,15.10
2018-10-07T03:15:01.133Z,15.10
2018-10-07T03:17:28.829Z,15.10
2018-10-07T03:19:56.369Z,15.10
2018-10-07T03:22:23.648Z,15.10
2018-10-07T03:24:50.970Z,15.10
2018-10-07T03:27:18.334Z,15.10
2018-10-07T03:29:45.898Z,15.10
2018-10-07T03:32:13.149Z,15.10
2018-10-07T03:34:40.518Z,15.10
2018-10-07T03:37:07.785Z,15.10
2018-10-07T03:39:35.209Z,15.10
2018-10-07T03:42:02.477Z,15.00
2018-10-07T03:44:29.763Z,15.00
2018-10-07T03:46:57.022Z,15.00
2018-10-07T03:49:24.314Z,15.00
2018-10-07T03:51:51.587Z,14.90
2018-10-07T03:54:18.871Z,14.90
2018-10-07T03:56:46.166Z,14.90
2018-10-07T03:59:13.422Z,14.80
2018-10-07T04:01:40.702Z,14.80
2018-10-07T04:04:07.999Z,14.80
2018-10-07T04:06:35.273Z,14.70
2018-10-07T04:09:03.333Z,14.80
2018-10-07T04:11:30.584Z,14.70
2018-10-07T04:13:57.837Z,14.70
2018-10-07T04:16:25.090Z,14.70
2018-10-07T04:18:52.407Z,14.70
2018-10-07T04:21:19.656Z,14.70
2018-10-07T04:23:46.922Z,14.60
2018-10-07T04:26:14.199Z,14.60
2018-10-07T04:28:41.472Z,14.60
2018-10-07T04:31:08.732Z,14.60
2018-10-07T04:33:36.026Z,14.60
2018-10-07T04:36:03.284Z,14.60
2018-10-07T04:38:30.721Z,14.50
2018-10-07T04:40:57.971Z,14.50
2018-10-07T04:43:25.220Z,14.50
2018-10-07T04:45:52.520Z,14.50
2018-10-07T04:48:19.769Z,14.50
2018-10-07T04:50:47.020Z,14.40
2018-10-07T04:53:14.293Z,14.50
2018-10-07T04:55:41.553Z,14.40
2018-10-07T04:58:08.807Z,14.40
2018-10-07T05:00:36.074Z,14.30
2018-10-07T05:03:03.333Z,14.30
2018-10-07T05:05:30.687Z,14.40
2018-10-07T05:07:58.143Z,14.20
2018-10-07T05:10:46.403Z,14.20
2018-10-07T05:13:16.550Z,14.20
2018-10-07T05:15:44.559Z,14.20
2018-10-07T05:18:11.824Z,14.20
2018-10-07T05:20:39.225Z,14.10
2018-10-07T05:23:06.511Z,14.10
2018-10-07T05:25:34.014Z,14.20
2018-10-07T05:30:28.732Z,14.20
2018-10-07T05:32:56.014Z,14.20
2018-10-07T05:35:23.275Z,14.20
2018-10-07T05:37:50.551Z,14.20
2018-10-07T05:40:18.038Z,14.20
2018-10-07T05:42:45.308Z,14.20
2018-10-07T05:45:12.586Z,14.20
2018-10-07T05:47:40.001Z,14.20
2018-10-07T05:50:07.343Z,14.20
2018-10-07T05:52:34.907Z,14.00
2018-10-07T05:55:02.223Z,14.20
2018-10-07T05:57:29.504Z,14.20
2018-10-07T05:59:57.187Z,14.10
2018-10-07T06:02:24.514Z,14.20
2018-10-07T06:04:53.134Z,14.20
2018-10-07T06:07:21.101Z,14.10
2018-10-07T06:09:48.378Z,14.10
2018-10-07T06:12:15.718Z,14.10
2018-10-07T06:14:54.717Z,14.10
2018-10-07T06:17:21.907Z,14.10
2018-10-07T06:19:49.190Z,14.10
2018-10-07T06:22:16.477Z,14.10
2018-10-07T06:24:43.763Z,14.10
2018-10-07T06:27:11.064Z,14.10
2018-10-07T06:29:38.350Z,14.10
2018-10-07T06:32:05.666Z,14.10
2018-10-07T06:34:32.989Z,14.10
2018-10-07T06:37:00.603Z,14.10
2018-10-07T06:39:27.904Z,14.10
2018-10-07T06:41:55.229Z,14.10
2018-10-07T06:44:22.878Z,14.10
2018-10-07T06:46:50.151Z,14.10
2018-10-07T06:49:18.173Z,14.10
2018-10-07T06:51:45.750Z,14.10
2018-10-07T06:54:13.711Z,14.10
2018-10-07T06:56:41.028Z,14.10
2018-10-07T06:59:08.302Z,14.10
2018-10-07T07:01:35.553Z,14.10
2018-10-07T07:04:02.849Z,14.10
2018-10-07T07:06:30.117Z,14.10
2018-10-07T07:08:57.387Z,14.10
2018-10-07T07:11:24.635Z,14.10
2018-10-07T07:13:51.918Z,14.20
2018-10-07T07:16:19.288Z,14.20
2018-10-07T07:18:46.756Z,14.20
2018-10-07T07:21:14.026Z,14.30
2018-10-07T07:23:41.654Z,14.30
2018-10-07T07:26:08.970Z,14.30
2018-10-07T07:28:36.242Z,14.40
2018-10-07T07:31:03.619Z,14.40
2018-10-07T07:33:30.894Z,14.50
2018-10-07T07:35:58.187Z,14.50
2018-10-07T07:38:25.468Z,14.60
2018-10-07T07:40:52.728Z,14.60
2018-10-07T07:43:20.016Z,14.70
2018-10-07T07:45:47.317Z,14.80
2018-10-07T07:48:14.608Z,14.80
2018-10-07T07:50:41.859Z,14.90
2018-10-07T07:53:09.141Z,14.90
2018-10-07T07:55:36.401Z,15.00
2018-10-07T07:58:03.700Z,15.00
2018-10-07T08:00:30.995Z,15.10
2018-10-07T08:02:58.298Z,15.10
2018-10-07T08:05:25.711Z,15.10
2018-10-07T08:07:53.106Z,15.10
2018-10-07T08:10:20.380Z,15.20
2018-10-07T08:12:47.675Z,15.20
2018-10-07T08:15:14.968Z,15.30
2018-10-07T08:17:42.376Z,15.30
2018-10-07T08:20:09.614Z,15.40
2018-10-07T08:22:36.863Z,15.50
2018-10-07T08:25:04.171Z,15.60
2018-10-07T08:27:31.414Z,15.70
2018-10-07T08:29:58.684Z,15.80
2018-10-07T08:32:26.005Z,15.90
2018-10-07T08:34:53.265Z,15.90
2018-10-07T08:37:20.761Z,16.00
2018-10-07T08:39:48.104Z,16.00
2018-10-07T08:42:15.358Z,16.10
2018-10-07T08:44:42.590Z,16.20
2018-10-07T08:47:09.856Z,16.30
2018-10-07T08:49:37.164Z,16.30
2018-10-07T08:52:04.540Z,16.40
2018-10-07T08:54:31.785Z,16.40
2018-10-07T08:56:59.100Z,16.50
2018-10-07T08:59:26.522Z,16.50
2018-10-07T09:01:53.838Z,16.50
2018-10-07T09:04:21.055Z,16.60
2018-10-07T09:06:48.346Z,16.60
2018-10-07T09:09:15.578Z,16.60
2018-10-07T09:11:42.850Z,16.70
2018-10-07T09:14:10.318Z,16.70
2018-10-07T09:16:37.559Z,16.70
2018-10-07T09:19:05.866Z,16.70
2018-10-07T09:21:33.140Z,16.80
2018-10-07T09:24:00.409Z,16.80
2018-10-07T09:26:27.731Z,16.90
2018-10-07T09:28:55.110Z,16.90
2018-10-07T09:31:22.387Z,17.00
2018-10-07T09:33:49.654Z,17.00
2018-10-07T09:36:16.906Z,17.10
2018-10-07T09:38:44.176Z,17.10
2018-10-07T09:41:11.474Z,17.10
2018-10-07T09:43:38.746Z,17.10
2018-10-07T09:46:06.063Z,17.20
2018-10-07T09:48:33.749Z,17.20
2018-10-07T09:51:01.097Z,17.20
2018-10-07T09:53:28.368Z,17.20
2018-10-07T09:55:55.714Z,17.20
2018-10-07T09:58:22.957Z,17.30
2018-10-07T10:00:50.267Z,17.30
2018-10-07T10:03:17.568Z,17.40
2018-10-07T10:05:44.819Z,17.40
2018-10-07T10:08:12.078Z,17.50
2018-10-07T10:10:39.356Z,17.50
2018-10-07T10:13:06.676Z,17.60
2018-10-07T10:15:35.112Z,17.70
2018-10-07T10:18:28.536Z,17.70
2018-10-07T10:22:18.591Z,17.70
2018-10-07T10:24:54.200Z,17.70
2018-10-07T10:27:40.978Z,17.70
2018-10-07T10:30:42.154Z,17.60
2018-10-07T10:33:20.739Z,17.50
2018-10-07T10:35:52.239Z,17.50
2018-10-07T10:38:27.511Z,17.40
2018-10-07T10:41:00.440Z,17.40
2018-10-07T10:43:35.303Z,17.40
2018-10-07T10:46:07.365Z,17.40
2018-10-07T10:49:03.468Z,17.50
2018-10-07T10:51:45.292Z,17.60
2018-10-07T10:54:15.906Z,17.70
2018-10-07T10:56:51.535Z,17.80
2018-10-07T10:59:30.531Z,17.90
2018-10-07T11:02:06.850Z,17.90
2018-10-07T11:04:38.613Z,18.00
2018-10-07T11:07:18.362Z,18.00
2018-10-07T11:10:58.410Z,18.00
2018-10-07T11:13:34.943Z,18.00
2018-10-07T11:16:10.456Z,18.00
2018-10-07T11:19:21.242Z,18.00
2018-10-07T11:22:57.190Z,18.00
2018-10-07T11:25:44.376Z,18.00
2018-10-07T11:28:21.886Z,18.10
2018-10-07T11:30:55.522Z,18.10
2018-10-07T11:33:30.203Z,18.20
2018-10-07T11:36:07.810Z,18.30
2018-10-07T11:39:46.712Z,18.40
2018-10-07T11:42:35.183Z,18.50
2018-10-07T11:45:43.332Z,18.60
2018-10-07T11:48:32.026Z,18.60
2018-10-07T11:51:01.986Z,18.60
2018-10-07T11:53:41.496Z,18.70
2018-10-07T11:56:08.780Z,18.70
2018-10-07T11:58:36.053Z,18.70
2018-10-07T12:01:03.344Z,18.70
2018-10-07T12:03:30.590Z,18.80
2018-10-07T12:05:57.870Z,18.80
2018-10-07T12:08:25.174Z,18.90
2018-10-07T12:10:52.466Z,18.90
2018-10-07T12:13:19.780Z,18.90
2018-10-07T12:15:47.278Z,18.90
2018-10-07T12:18:14.606Z,18.90
2018-10-07T12:20:41.862Z,18.90
2018-10-07T12:23:09.153Z,18.90
2018-10-07T12:25:36.682Z,18.90
2018-10-07T12:28:03.995Z,18.90
2018-10-07T12:30:31.511Z,18.90
2018-10-07T12:32:58.762Z,18.90
2018-10-07T12:35:26.007Z,18.90
2018-10-07T12:37:53.266Z,18.90
2018-10-07T12:40:20.597Z,18.90
2018-10-07T12:42:47.860Z,19.00
2018-10-07T12:45:15.535Z,19.00
2018-10-07T12:47:42.801Z,19.10
2018-10-07T12:50:10.055Z,19.20
2018-10-07T12:52:38.047Z,19.20
2018-10-07T12:55:05.350Z,19.20
2018-10-07T12:57:32.593Z,19.30
2018-10-07T13:00:00.075Z,19.40
2018-10-07T13:02:27.393Z,19.50
2018-10-07T13:04:54.651Z,19.60
2018-10-07T13:07:22.557Z,19.70
2018-10-07T13:09:49.799Z,19.80
2018-10-07T13:12:17.035Z,19.80
2018-10-07T13:14:44.304Z,19.80
2018-10-07T13:17:11.578Z,19.80
2018-10-07T13:19:38.815Z,19.80
2018-10-07T13:22:06.074Z,19.80
2018-10-07T13:24:33.353Z,19.80
2018-10-07T13:27:00.618Z,19.80
2018-10-07T13:29:27.894Z,19.80
2018-10-07T13:31:55.245Z,19.90
2018-10-07T13:34:22.534Z,20.00
2018-10-07T13:36:49.771Z,20.00
2018-10-07T13:39:17.068Z,20.10
2018-10-07T13:41:44.334Z,20.10
2018-10-07T13:44:11.590Z,20.10
2018-10-07T13:46:38.863Z,20.00
2018-10-07T13:49:06.299Z,19.90
2018-10-07T13:51:33.523Z,19.90
2018-10-07T13:54:00.797Z,19.90
2018-10-07T13:56:28.271Z,20.00
2018-10-07T13:58:55.555Z,19.90
2018-10-07T14:01:23.038Z,20.00
2018-10-07T14:03:50.345Z,20.00
2018-10-07T14:06:18.179Z,20.00
2018-10-07T14:08:45.479Z,20.00
2018-10-07T14:11:12.742Z,19.90
2018-10-07T14:13:39.995Z,19.90
2018-10-07T14:16:07.275Z,19.80
2018-10-07T14:18:34.532Z,19.80
2018-10-07T14:21:01.795Z,19.80
2018-10-07T14:23:29.045Z,19.70
2018-10-07T14:25:56.306Z,19.60
2018-10-07T14:28:23.591Z,19.60
2018-10-07T14:30:50.839Z,19.50
2018-10-07T14:33:18.090Z,19.40
2018-10-07T14:35:45.688Z,19.40
2018-10-07T14:38:12.956Z,19.30
2018-10-07T14:40:40.210Z,19.40
2018-10-07T14:43:07.470Z,19.40
2018-10-07T14:45:34.727Z,19.40
2018-10-07T14:48:08.862Z,19.40
2018-10-07T14:50:36.142Z,19.30
2018-10-07T14:53:03.387Z,19.30
2018-10-07T14:55:30.645Z,19.30
2018-10-07T14:57:57.926Z,19.20
2018-10-07T15:00:25.182Z,19.20
2018-10-07T15:02:52.451Z,19.10
2018-10-07T15:05:20.553Z,19.10
2018-10-07T15:07:47.995Z,19.00
2018-10-07T15:10:15.299Z,18.90
2018-10-07T15:12:42.551Z,18.90
2018-10-07T15:15:09.815Z,18.90
2018-10-07T15:17:37.270Z,18.90
2018-10-07T15:20:05.119Z,18.90
2018-10-07T15:22:32.372Z,18.80
2018-10-07T15:24:59.628Z,18.80
2018-10-07T15:27:26.950Z,18.60
2018-10-07T15:29:54.301Z,18.60
2018-10-07T15:32:21.750Z,18.50
2018-10-07T15:34:49.145Z,18.40
2018-10-07T15:37:16.438Z,18.40
2018-10-07T15:39:43.871Z,18.30
2018-10-07T15:42:11.164Z,18.30
2018-10-07T15:44:38.413Z,18.30
2018-10-07T15:47:06.007Z,18.30
2018-10-07T15:49:33.264Z,18.30
2018-10-07T15:52:00.575Z,18.30
2018-10-07T15:54:27.885Z,18.20
2018-10-07T15:56:55.134Z,18.20
2018-10-07T15:59:22.594Z,18.20
2018-10-07T16:01:50.055Z,18.20
2018-10-07T16:04:17.345Z,18.20
2018-10-07T16:06:44.705Z,18.20
2018-10-07T16:09:12.623Z,18.20
2018-10-07T16:11:40.911Z,18.10
2018-10-07T16:14:08.374Z,18.00
2018-10-07T16:16:35.618Z,18.00
2018-10-07T16:19:02.859Z,17.90
2018-10-07T16:21:30.342Z,17.80
2018-10-07T16:23:57.654Z,17.70
2018-10-07T16:26:24.995Z,17.70
2018-10-07T16:28:52.174Z,17.70
2018-10-07T16:31:19.439Z,17.60
2018-10-07T16:33:46.911Z,17.50
2018-10-07T16:36:14.179Z,17.40
2018-10-07T16:38:41.423Z,17.30
2018-10-07T16:41:08.666Z,17.30
2018-10-07T16:43:35.920Z,17.20
2018-10-07T16:46:03.209Z,17.10
2018-10-07T16:48:30.463Z,17.10
2018-10-07T16:50:57.738Z,17.00
2018-10-07T16:53:24.994Z,16.90
2018-10-07T16:55:52.251Z,16.80
2018-10-07T16:58:19.514Z,16.80
2018-10-07T17:00:46.745Z,16.70
2018-10-07T17:03:13.995Z,16.60
2018-10-07T17:05:41.242Z,16.50
2018-10-07T17:08:08.513Z,16.50
2018-10-07T17:10:35.766Z,16.40
2018-10-07T17:13:03.268Z,16.30
2018-10-07T17:15:30.432Z,16.20
2018-10-07T17:17:57.717Z,16.20
2018-10-07T17:20:24.989Z,16.10
2018-10-07T17:22:52.326Z,16.00
2018-10-07T17:25:19.767Z,16.00
2018-10-07T17:27:46.994Z,15.90
2018-10-07T17:30:14.270Z,15.80
2018-10-07T17:32:41.569Z,15.80
2018-10-07T17:35:08.791Z,15.70
2018-10-07T17:37:36.030Z,15.60
2018-10-07T17:40:04.051Z,15.60
2018-10-07T17:42:31.358Z,15.50
2018-10-07T17:44:58.558Z,15.40
2018-10-07T17:47:25.795Z,15.20
2018-10-07T17:49:53.051Z,15.10
2018-10-07T17:52:20.297Z,15.10
2018-10-07T17:54:47.588Z,14.90
2018-10-07T17:57:14.866Z,14.80
2018-10-07T17:59:42.143Z,14.80
2018-10-07T18:02:09.393Z,14.70
2018-10-07T18:04:36.878Z,14.60
2018-10-07T18:07:04.151Z,14.50
2018-10-07T18:09:31.420Z,14.40
2018-10-07T18:11:58.694Z,14.40
2018-10-07T18:14:25.967Z,14.30
2018-10-07T18:16:53.305Z,14.30
2018-10-07T18:19:20.593Z,14.20
2018-10-07T18:21:47.958Z,14.10
2018-10-07T18:24:15.184Z,14.10
2018-10-07T18:26:42.861Z,14.10
2018-10-07T18:29:10.217Z,13.90
2018-10-07T18:31:39.754Z,13.90
2018-10-07T18:34:07.410Z,13.80
2018-10-07T18:36:34.643Z,13.70
2018-10-07T18:39:01.955Z,13.70
2018-10-07T18:41:29.566Z,13.70
2018-10-07T18:43:56.839Z,13.60
2018-10-07T18:46:24.115Z,13.40
2018-10-07T18:48:51.485Z,13.40
2018-10-07T18:51:18.660Z,13.30
2018-10-07T18:53:45.918Z,13.30
2018-10-07T18:56:13.198Z,13.20
2018-10-07T18:58:40.561Z,13.20
2018-10-07T19:01:07.837Z,13.10
2018-10-07T19:03:35.213Z,13.10
2018-10-07T19:06:02.497Z,13.00
2018-10-07T19:08:29.806Z,12.90
2018-10-07T19:10:57.042Z,12.90
2018-10-07T19:13:24.327Z,12.80
2018-10-07T19:15:51.636Z,12.80
2018-10-07T19:18:18.909Z,12.70
2018-10-07T19:20:46.313Z,12.70
2018-10-07T19:23:13.566Z,12.60
2018-10-07T19:25:40.830Z,12.50
2018-10-07T19:28:08.368Z,12.40
2018-10-07T19:30:35.633Z,12.40
2018-10-07T19:33:02.915Z,12.30
2018-10-07T19:35:30.373Z,12.30
2018-10-07T19:37:57.618Z,12.30
2018-10-07T19:40:24.852Z,12.20
2018-10-07T19:42:52.111Z,12.20
2018-10-07T19:45:19.410Z,12.20
2018-10-07T19:47:46.717Z,12.10
2018-10-07T19:50:14.180Z,12.00
2018-10-07T19:52:41.488Z,12.00
2018-10-07T19:55:08.685Z,12.00
2018-10-07T19:57:35.964Z,11.90
2018-10-07T20:00:03.254Z,11.80
2018-10-07T20:02:30.502Z,11.80
2018-10-07T20:04:57.760Z,11.80
2018-10-07T20:07:25.006Z,11.70
2018-10-07T20:09:52.580Z,11.70
2018-10-07T20:12:19.851Z,11.60
2018-10-07T20:14:47.090Z,11.50
2018-10-07T20:17:14.353Z,11.50
2018-10-07T20:19:41.614Z,11.50
2018-10-07T20:22:11.903Z,11.40
2018-10-07T20:24:39.305Z,11.40
2018-10-07T20:27:06.584Z,11.30
2018-10-07T20:29:33.823Z,11.30
2018-10-07T20:32:01.095Z,11.20
2018-10-07T20:34:28.414Z,11.20
2018-10-07T20:36:55.670Z,11.10
2018-10-07T20:39:22.969Z,11.10
2018-10-07T20:41:50.219Z,11.10
2018-10-07T20:44:17.457Z,11.00
2018-10-07T20:46:44.723Z,11.00
2018-10-07T20:49:11.987Z,10.90
2018-10-07T20:51:39.230Z,10.90
2018-10-07T20:54:06.497Z,10.80
2018-10-07T20:56:33.763Z,10.80
2018-10-07T20:59:01.031Z,10.80
2018-10-07T21:01:28.311Z,10.70
2018-10-07T21:03:56.459Z,10.70
2018-10-07T21:06:23.797Z,10.70
2018-10-07T21:08:51.071Z,10.60
2018-10-07T21:11:18.355Z,10.60
2018-10-07T21:13:45.618Z,10.60
2018-10-07T21:16:12.864Z,10.60
2018-10-07T21:18:40.177Z,10.50
2018-10-07T21:21:07.449Z,10.50
2018-10-07T21:23:34.862Z,10.50
2018-10-07T21:26:02.102Z,10.40
2018-10-07T21:28:29.349Z,10.40
2018-10-07T21:30:56.808Z,10.40
2018-10-07T21:33:24.045Z,10.40
2018-10-07T21:35:51.380Z,10.40
2018-10-07T21:38:18.638Z,10.40
2018-10-07T21:40:45.961Z,10.40
2018-10-07T21:43:13.188Z,10.30
2018-10-07T21:45:40.441Z,10.30
2018-10-07T21:48:07.685Z,10.30
2018-10-07T21:50:34.958Z,10.30
2018-10-07T21:53:02.218Z,10.20
2018-10-07T21:55:29.534Z,10.40
2018-10-07T21:57:56.778Z,10.20
2018-10-07T22:00:24.074Z,10.20
2018-10-07T22:02:51.341Z,10.10
2018-10-07T22:05:18.591Z,10.10
2018-10-07T22:07:45.890Z,10.00
2018-10-07T22:10:13.126Z,10.00
2018-10-07T22:12:40.390Z,10.00
2018-10-07T22:15:07.706Z,10.00
2018-10-07T22:17:34.970Z,9.90
2018-10-07T22:20:02.325Z,9.90
2018-10-07T22:22:29.929Z,9.90
2018-10-07T22:24:57.179Z,9.80
2018-10-07T22:27:24.483Z,9.80
2018-10-07T22:29:51.741Z,9.80
2018-10-07T22:32:19.047Z,9.80
2018-10-07T22:34:46.313Z,9.70
2018-10-07T22:37:13.744Z,9.70
2018-10-07T22:39:41.079Z,9.70
2018-10-07T22:42:08.320Z,9.70
2018-10-07T22:44:35.590Z,9.70
2018-10-07T22:47:02.854Z,9.60
2018-10-07T22:49:30.124Z,9.60
2018-10-07T22:51:57.450Z,9.60
2018-10-07T22:54:24.746Z,9.60
2018-10-07T22:56:52.014Z,9.50
2018-10-07T22:59:19.522Z,9.50
2018-10-07T23:01:46.803Z,9.50
2018-10-07T23:04:14.074Z,9.50
2018-10-07T23:06:41.594Z,9.50
2018-10-07T23:09:10.484Z,9.40
2018-10-07T23:11:37.763Z,9.40
2018-10-07T23:14:05.170Z,9.40
2018-10-07T23:16:32.417Z,9.40
2018-10-07T23:18:59.662Z,9.40
2018-10-07T23:21:27.130Z,9.30
2018-10-07T23:23:54.370Z,9.30
2018-10-07T23:26:21.656Z,9.30
2018-10-07T23:28:48.918Z,9.30
2018-10-07T23:31:16.168Z,9.30
2018-10-07T23:33:43.400Z,9.20
2018-10-07T23:36:10.644Z,9.20
2018-10-07T23:38:37.878Z,9.20
2018-10-07T23:41:05.313Z,9.10
2018-10-07T23:43:32.581Z,9.10
2018-10-07T23:45:59.837Z,9.10
2018-10-07T23:48:27.091Z,9.10
2018-10-07T23:50:54.590Z,9.10
2018-10-07T23:53:21.818Z,9.00
2018-10-07T23:55:49.093Z,9.00
2018-10-07T23:58:16.366Z,9.00
